Current Weather

De Kalb Taylor Muni

De Kalb, Illinois (KDKB)

Report from: Monday, August 15, 2022 7:15 PM CDT
Current time: Monday, August 15, 2022 7:40 PM CDT

Nearby weather
Weather history
Weather forecast

Temperature21.2°C (70.2°F)
Dew point18.6°C (65.5°F)
Winds 5 kts (2.6 m/s, 5.8 mph) Northeast (50°)
Visibility10 mi. (16.1 km)
Clouds Scattered clouds 7,500 ft. (2,286 m)
Ceiling: Broken clouds 10,000 ft. (3,048 m)
Altimeter30.09 in.Hg (1019 mB)
Relative humidity85 %
Density altitude823 ft. (251 m)
Remarks Fully automated report
Automated weather observing station with precipitation discriminator
Flight conditions Visual Meteorological Conditions
Raw dataKDKB 160015Z AUTO 05005KT 10SM SCT075 BKN100 21/19 A3009 RMK AO2 T02120186
An error has occurred. This application may no longer respond until reloaded. Reload 🗙